Información del aeropuerto TLPC

Información de pista
Pista 09 Longitud 5735 ft Anchura 148 ft
Elevación 20 ft Umbral 426 ft Rumbo 75
Pista 27 Longitud 5735 ft Anchura 148 ft
Elevación 10 ft Umbral 1007 ft Rumbo 255
Frecuencias del aeropuerto
Tipo GND Nombre GND Frecuencia 121.9 MHZ
Tipo TWR Nombre TWR Frecuencia 118 MHZ
Radioayudas del aeropuerto
Tipo NDB Nombre Vigie Frecuencia 415 KHZ
Información meteorológica del aeropuerto y NOTAM
ADDS - METARS form results

(0056 UTC 06 May 2021)
Data provider http://aviationweather.gov/metar/data/
 
Forecast for: TLPC (VIGIE/ST LUCIA , LC)
Text: TAF TLPC 052300Z 0600/0624 09010KT 9999 SCT023
Forecast period: 0000 UTC 06 May 2021 to 0000 UTC 07 May 2021
Forecast type: FROM: standard forecast or significant change
Winds: from the E (90 degrees) at 12 MPH (10 knots; 5.1 m/s)
Visibility: 6 or more miles (10+ km)
Ceiling: at least 12,000 feet AGL
Clouds: scattered clouds at 2300 feet AGL
Weather: no significant weather forecast for this period
Text: TEMPO 0600/0612 SHRA BKN015
Forecast period: 0000 to 1200 UTC 06 May 2021
Forecast type: TEMPORARY: The following changes expected for less than half the time period
Visibility: missing
Ceiling: 1500 feet AGL
Clouds: broken clouds at 1500 feet AGL
Weather: SHRA  (rain showers)